createdAt,value
2018-11-01T00:00:58.097Z,7.95
2018-11-01T00:01:58.121Z,7.92
2018-11-01T00:02:58.069Z,7.92
2018-11-01T00:03:58.060Z,7.98
2018-11-01T00:04:58.045Z,7.98
2018-11-01T00:05:58.039Z,7.89
2018-11-01T00:06:58.027Z,7.93
2018-11-01T00:07:58.056Z,7.95
2018-11-01T00:08:58.010Z,7.97
2018-11-01T00:09:57.997Z,7.89
2018-11-01T00:10:57.990Z,7.95
2018-11-01T00:11:57.974Z,7.92
2018-11-01T00:12:57.960Z,7.86
2018-11-01T00:13:57.985Z,7.87
2018-11-01T00:14:57.936Z,7.86
2018-11-01T00:15:57.932Z,7.97
2018-11-01T00:17:10.099Z,7.92
2018-11-01T00:17:57.910Z,7.93
2018-11-01T00:18:57.898Z,7.90
2018-11-01T00:19:58.060Z,7.86
2018-11-01T00:20:57.869Z,7.89
2018-11-01T00:21:57.861Z,7.87
2018-11-01T00:22:57.855Z,7.82
2018-11-01T00:23:57.844Z,7.80
2018-11-01T00:24:57.830Z,7.86
2018-11-01T00:25:57.860Z,7.90
2018-11-01T00:26:57.812Z,7.82
2018-11-01T00:27:57.796Z,7.83
2018-11-01T00:28:57.797Z,7.75
2018-11-01T00:29:57.777Z,7.85
2018-11-01T00:30:57.767Z,7.90
2018-11-01T00:31:57.791Z,7.83
2018-11-01T00:32:57.745Z,7.85
2018-11-01T00:33:57.733Z,7.79
2018-11-01T00:34:57.728Z,7.80
2018-11-01T00:35:57.712Z,7.83
2018-11-01T00:36:57.701Z,7.79
2018-11-01T00:37:57.858Z,7.80
2018-11-01T00:38:57.682Z,7.85
2018-11-01T00:39:57.670Z,7.77
2018-11-01T00:40:57.656Z,7.80
2018-11-01T00:41:57.651Z,7.82
2018-11-01T00:42:57.637Z,7.80
2018-11-01T00:43:57.648Z,7.86
2018-11-01T00:44:57.616Z,7.83
2018-11-01T00:45:57.602Z,7.80
2018-11-01T00:46:57.588Z,7.87
2018-11-01T00:48:08.026Z,7.85
2018-11-01T00:48:57.573Z,7.89
2018-11-01T00:49:57.714Z,7.83
2018-11-01T00:50:57.546Z,7.80
2018-11-01T00:51:57.535Z,7.83
2018-11-01T00:52:57.523Z,7.79
2018-11-01T00:53:57.526Z,7.79
2018-11-01T00:54:57.506Z,7.82
2018-11-01T00:55:57.620Z,7.82
2018-11-01T00:56:57.484Z,7.83
2018-11-01T00:57:57.479Z,7.86
2018-11-01T00:58:57.462Z,7.83
2018-11-01T00:59:57.450Z,7.85
2018-11-01T01:00:57.441Z,7.79
2018-11-01T01:01:57.445Z,7.79
2018-11-01T01:02:57.421Z,7.85
2018-11-01T01:03:57.409Z,7.85
2018-11-01T01:04:57.401Z,7.77
2018-11-01T01:05:57.385Z,7.85
2018-11-01T01:06:57.372Z,7.74
2018-11-01T01:07:57.412Z,7.75
2018-11-01T01:08:57.350Z,7.83
2018-11-01T01:09:57.339Z,7.82
2018-11-01T01:10:57.329Z,7.82
2018-11-01T01:11:57.328Z,7.80
2018-11-01T01:12:57.310Z,7.83
2018-11-01T01:13:57.335Z,7.85
2018-11-01T01:14:57.289Z,7.80
2018-11-01T01:15:57.274Z,7.82
2018-11-01T01:16:57.265Z,7.85
2018-11-01T01:17:57.260Z,7.77
2018-11-01T01:19:08.026Z,7.80
2018-11-01T01:19:57.234Z,7.85
2018-11-01T01:20:57.220Z,7.77
2018-11-01T01:21:57.210Z,7.89
2018-11-01T01:22:57.200Z,7.80
2018-11-01T01:23:57.188Z,7.77
2018-11-01T01:24:57.214Z,7.77
2018-11-01T01:25:57.164Z,7.79
2018-11-01T01:26:57.162Z,7.74
2018-11-01T01:27:57.153Z,7.77
2018-11-01T01:28:57.134Z,7.77
2018-11-01T01:29:57.124Z,7.83
2018-11-01T01:30:57.168Z,7.79
2018-11-01T01:31:57.107Z,7.75
2018-11-01T01:32:57.096Z,7.79
2018-11-01T01:33:57.086Z,7.74
2018-11-01T01:34:57.076Z,7.79
2018-11-01T01:35:57.059Z,7.72
2018-11-01T01:36:57.304Z,7.79
2018-11-01T01:37:57.038Z,7.74
2018-11-01T01:38:57.024Z,7.68
2018-11-01T01:39:57.021Z,7.68
2018-11-01T01:40:57.012Z,7.63
2018-11-01T01:41:56.995Z,7.68
2018-11-01T01:42:57.015Z,7.71
2018-11-01T01:43:56.982Z,7.71
2018-11-01T01:44:56.961Z,7.68
2018-11-01T01:45:56.955Z,7.69
2018-11-01T01:46:56.944Z,7.64
2018-11-01T01:47:56.927Z,7.63
2018-11-01T01:48:56.965Z,7.52
2018-11-01T01:50:07.255Z,7.57
2018-11-01T01:50:56.896Z,7.49
2018-11-01T01:51:56.885Z,7.46
2018-11-01T01:52:56.874Z,7.55
2018-11-01T01:53:56.864Z,7.43
2018-11-01T01:54:56.887Z,7.46
2018-11-01T01:55:56.848Z,7.45
2018-11-01T01:56:56.838Z,7.45
2018-11-01T01:57:56.819Z,7.50
2018-11-01T01:58:56.812Z,7.34
2018-11-01T01:59:56.796Z,7.40
2018-11-01T02:00:56.829Z,7.31
2018-11-01T02:01:56.777Z,7.32
2018-11-01T02:02:56.771Z,7.34
2018-11-01T02:03:56.756Z,7.35
2018-11-01T02:04:56.742Z,7.32
2018-11-01T02:05:56.729Z,7.42
2018-11-01T02:06:56.761Z,7.35
2018-11-01T02:07:56.712Z,7.37
2018-11-01T02:08:56.706Z,7.40
2018-11-01T02:09:56.688Z,7.45
2018-11-01T02:10:56.680Z,7.37
2018-11-01T02:11:56.795Z,7.34
2018-11-01T02:12:56.693Z,7.37
2018-11-01T02:13:56.644Z,7.35
2018-11-01T02:14:56.632Z,7.35
2018-11-01T02:15:56.622Z,7.35
2018-11-01T02:16:56.617Z,7.42
2018-11-01T02:17:56.603Z,7.43
2018-11-01T02:18:56.629Z,7.42
2018-11-01T02:19:56.586Z,7.45
2018-11-01T02:21:07.589Z,7.45
2018-11-01T02:21:56.561Z,7.46
2018-11-01T02:22:56.547Z,7.48
2018-11-01T02:23:56.539Z,7.46
2018-11-01T02:24:56.561Z,7.48
2018-11-01T02:25:56.522Z,7.53
2018-11-01T02:26:56.508Z,7.49
2018-11-01T02:27:56.500Z,7.52
2018-11-01T02:28:56.495Z,7.52
2018-11-01T02:29:56.476Z,7.53
2018-11-01T02:30:56.497Z,7.53
2018-11-01T02:31:56.462Z,7.52
2018-11-01T02:32:56.445Z,7.48
2018-11-01T02:33:56.440Z,7.46
2018-11-01T02:34:56.414Z,7.40
2018-11-01T02:35:56.405Z,7.43
2018-11-01T02:36:56.435Z,7.40
2018-11-01T02:37:56.427Z,7.40
2018-11-01T02:38:56.379Z,7.42
2018-11-01T02:39:56.367Z,7.37
2018-11-01T02:40:56.357Z,7.46
2018-11-01T02:41:56.342Z,7.43
2018-11-01T02:42:56.389Z,7.45
2018-11-01T02:43:56.329Z,7.43
2018-11-01T02:44:56.320Z,7.39
2018-11-01T02:45:56.305Z,7.32
2018-11-01T02:46:56.289Z,7.39
2018-11-01T02:47:56.283Z,7.32
2018-11-01T02:48:56.305Z,7.32
2018-11-01T02:49:56.262Z,7.39
2018-11-01T02:50:56.251Z,7.42
2018-11-01T02:52:07.746Z,7.37
2018-11-01T02:52:56.229Z,7.37
2018-11-01T02:53:56.216Z,7.50
2018-11-01T02:54:56.246Z,7.43
2018-11-01T02:55:56.196Z,7.37
2018-11-01T02:56:56.184Z,7.40
2018-11-01T02:57:56.182Z,7.45
2018-11-01T02:58:56.172Z,7.49
2018-11-01T02:59:56.261Z,7.40
2018-11-01T03:00:56.174Z,7.43
2018-11-01T03:01:56.127Z,7.46
2018-11-01T03:02:56.119Z,7.40
2018-11-01T03:03:56.105Z,7.39
2018-11-01T03:04:56.105Z,7.48
2018-11-01T03:05:56.084Z,7.50
2018-11-01T03:06:56.234Z,7.45
2018-11-01T03:07:56.063Z,7.45
2018-11-01T03:08:56.056Z,7.43
2018-11-01T03:09:56.039Z,7.53
2018-11-01T03:10:56.040Z,7.49
2018-11-01T03:11:56.020Z,7.57
2018-11-01T03:12:56.045Z,7.50
2018-11-01T03:13:55.999Z,7.50
2018-11-01T03:14:55.987Z,7.55
2018-11-01T03:15:55.983Z,7.55
2018-11-01T03:16:55.994Z,7.49
2018-11-01T03:17:55.954Z,7.50
2018-11-01T03:18:56.121Z,7.49
2018-11-01T03:19:55.931Z,7.50
2018-11-01T03:20:55.928Z,7.49
2018-11-01T03:21:55.942Z,7.42
2018-11-01T03:23:06.213Z,7.43
2018-11-01T03:23:55.892Z,7.50
2018-11-01T03:24:56.051Z,7.48
2018-11-01T03:25:55.869Z,7.43
2018-11-01T03:26:55.860Z,7.45
2018-11-01T03:27:55.849Z,7.42
2018-11-01T03:28:55.832Z,7.48
2018-11-01T03:29:55.823Z,7.45
2018-11-01T03:30:55.830Z,7.48
2018-11-01T03:31:55.807Z,7.43
2018-11-01T03:32:55.792Z,7.46
2018-11-01T03:33:55.788Z,7.50
2018-11-01T03:34:55.776Z,7.46
2018-11-01T03:35:55.769Z,7.40
2018-11-01T03:36:55.770Z,7.42
2018-11-01T03:37:55.751Z,7.43
2018-11-01T03:38:55.793Z,7.40
2018-11-01T03:39:55.729Z,7.39
2018-11-01T03:40:55.716Z,7.35
2018-11-01T03:41:55.699Z,7.42
2018-11-01T03:42:55.724Z,7.39
2018-11-01T03:43:55.685Z,7.39
2018-11-01T03:44:55.669Z,7.39
2018-11-01T03:45:55.656Z,7.37
2018-11-01T03:46:55.651Z,7.37
2018-11-01T03:47:55.638Z,7.34
2018-11-01T03:48:55.660Z,7.37
2018-11-01T03:49:55.613Z,7.35
2018-11-01T03:50:55.601Z,7.37
2018-11-01T03:51:55.708Z,7.37
2018-11-01T03:52:55.583Z,7.30
2018-11-01T03:54:08.613Z,7.39
2018-11-01T03:54:55.556Z,7.35
2018-11-01T03:55:55.543Z,7.39
2018-11-01T03:56:55.537Z,7.35
2018-11-01T03:57:55.537Z,7.28
2018-11-01T03:58:55.513Z,7.27
2018-11-01T03:59:55.547Z,7.32
2018-11-01T04:00:55.494Z,7.32
2018-11-01T04:01:55.484Z,7.30
2018-11-01T04:02:55.471Z,7.34
2018-11-01T04:03:55.520Z,7.35
2018-11-01T04:04:55.449Z,7.39
2018-11-01T04:05:55.484Z,7.35
2018-11-01T04:06:55.427Z,7.34
2018-11-01T04:07:55.419Z,7.28
2018-11-01T04:08:55.414Z,7.30
2018-11-01T04:09:55.394Z,7.27
2018-11-01T04:10:55.382Z,7.31
2018-11-01T04:11:55.391Z,7.17
2018-11-01T04:12:55.359Z,7.24
2018-11-01T04:13:55.351Z,7.21
2018-11-01T04:14:55.430Z,7.21
2018-11-01T04:15:55.336Z,7.34
2018-11-01T04:16:55.378Z,7.23
2018-11-01T04:17:55.350Z,7.21
2018-11-01T04:18:55.298Z,7.28
2018-11-01T04:19:55.299Z,7.23
2018-11-01T04:20:55.281Z,7.31
2018-11-01T04:21:55.271Z,7.28
2018-11-01T04:22:55.256Z,7.28
2018-11-01T04:23:55.286Z,7.24
2018-11-01T04:25:05.375Z,7.30
2018-11-01T04:25:55.226Z,7.34
2018-11-01T04:26:55.211Z,7.30
2018-11-01T04:27:55.222Z,7.34
2018-11-01T04:28:55.214Z,7.39
2018-11-01T04:29:55.218Z,7.35
2018-11-01T04:30:55.185Z,7.42
2018-11-01T04:31:55.166Z,7.39
2018-11-01T04:32:55.248Z,7.42
2018-11-01T04:33:55.151Z,7.39
2018-11-01T04:34:55.130Z,7.30
2018-11-01T04:35:55.765Z,7.34
2018-11-01T04:36:55.109Z,7.40
2018-11-01T04:37:55.096Z,7.37
2018-11-01T04:38:55.089Z,7.37
2018-11-01T04:39:55.081Z,7.34
2018-11-01T04:40:55.068Z,7.42
2018-11-01T04:41:55.090Z,7.46
2018-11-01T04:42:55.053Z,7.55
2018-11-01T04:43:55.028Z,7.45
2018-11-01T04:44:55.030Z,7.49
2018-11-01T04:45:55.009Z,7.52
2018-11-01T04:46:55.001Z,7.42
2018-11-01T04:47:55.290Z,7.43
2018-11-01T04:48:54.979Z,7.40
2018-11-01T04:49:54.974Z,7.45
2018-11-01T04:50:54.959Z,7.43
2018-11-01T04:51:54.947Z,7.42
2018-11-01T04:52:54.941Z,7.32
2018-11-01T04:53:54.960Z,7.40
2018-11-01T04:54:54.916Z,7.46
2018-11-01T04:56:05.344Z,7.35
2018-11-01T04:56:54.888Z,7.48
2018-11-01T04:57:54.881Z,7.39
2018-11-01T04:58:54.870Z,7.42
2018-11-01T04:59:54.897Z,7.42
2018-11-01T05:00:54.849Z,7.39
2018-11-01T05:01:54.846Z,7.40
2018-11-01T05:02:54.830Z,7.39
2018-11-01T05:03:54.814Z,7.39
2018-11-01T05:04:54.869Z,7.42
2018-11-01T05:05:54.837Z,7.40
2018-11-01T05:06:54.801Z,7.35
2018-11-01T05:07:54.776Z,7.39
2018-11-01T05:08:54.762Z,7.37
2018-11-01T05:09:54.757Z,7.42
2018-11-01T05:10:54.745Z,7.34
2018-11-01T05:11:54.771Z,7.30
2018-11-01T05:12:54.734Z,7.35
2018-11-01T05:13:54.709Z,7.32
2018-11-01T05:14:54.699Z,7.25
2018-11-01T05:15:54.692Z,7.32
2018-11-01T05:16:54.683Z,7.32
2018-11-01T05:17:54.699Z,7.28
2018-11-01T05:18:54.660Z,7.32
2018-11-01T05:19:54.652Z,7.35
2018-11-01T05:20:54.633Z,7.25
2018-11-01T05:21:54.625Z,7.20
2018-11-01T05:22:54.618Z,7.31
2018-11-01T05:23:54.626Z,7.27
2018-11-01T05:24:54.596Z,7.17
2018-11-01T05:25:54.696Z,7.23
2018-11-01T05:27:05.114Z,7.27
2018-11-01T05:27:54.557Z,7.23
2018-11-01T05:28:54.549Z,7.23
2018-11-01T05:29:54.576Z,7.27
2018-11-01T05:30:54.530Z,7.32
2018-11-01T05:31:54.517Z,7.17
2018-11-01T05:32:54.512Z,7.23
2018-11-01T05:33:54.543Z,7.20
2018-11-01T05:34:54.484Z,7.20
2018-11-01T05:35:54.496Z,7.21
2018-11-01T05:36:54.469Z,7.21
2018-11-01T05:37:54.466Z,7.21
2018-11-01T05:38:54.446Z,7.20
2018-11-01T05:39:54.430Z,7.31
2018-11-01T05:40:54.424Z,7.24
2018-11-01T05:41:54.734Z,7.27
2018-11-01T05:42:54.404Z,7.30
2018-11-01T05:43:54.390Z,7.27
2018-11-01T05:44:54.384Z,7.37
2018-11-01T05:45:54.371Z,7.25
2018-11-01T05:46:54.361Z,7.31
2018-11-01T05:47:54.388Z,7.31
2018-11-01T05:48:54.340Z,7.28
2018-11-01T05:49:54.327Z,7.37
2018-11-01T05:50:54.316Z,7.32
2018-11-01T05:51:54.309Z,7.34
2018-11-01T05:52:54.294Z,7.35
2018-11-01T05:53:54.322Z,7.30
2018-11-01T05:54:54.274Z,7.39
2018-11-01T05:55:54.274Z,7.35
2018-11-01T05:56:54.249Z,7.37
2018-11-01T05:58:04.337Z,7.30
2018-11-01T05:58:54.230Z,7.35
2018-11-01T05:59:54.267Z,7.30
2018-11-01T06:00:54.207Z,7.31
2018-11-01T06:01:54.193Z,7.35
2018-11-01T06:02:54.201Z,7.32
2018-11-01T06:03:54.171Z,7.31
2018-11-01T06:04:54.160Z,7.30
2018-11-01T06:05:54.322Z,7.30
2018-11-01T06:06:54.151Z,7.42
2018-11-01T06:07:54.131Z,7.43
2018-11-01T06:08:54.123Z,7.39
2018-11-01T06:09:54.116Z,7.40
2018-11-01T06:10:54.097Z,7.43
2018-11-01T06:11:54.116Z,7.37
2018-11-01T06:12:54.086Z,7.35
2018-11-01T06:13:54.064Z,7.37
2018-11-01T06:14:54.055Z,7.43
2018-11-01T06:15:54.051Z,7.43
2018-11-01T06:16:54.035Z,7.46
2018-11-01T06:17:54.061Z,7.39
2018-11-01T06:18:54.014Z,7.42
2018-11-01T06:19:54.006Z,7.48
2018-11-01T06:20:53.989Z,7.45
2018-11-01T06:21:53.995Z,7.40
2018-11-01T06:22:53.977Z,7.48
2018-11-01T06:23:54.003Z,7.45
2018-11-01T06:24:53.952Z,7.52
2018-11-01T06:25:53.949Z,7.49
2018-11-01T06:26:53.928Z,7.46
2018-11-01T06:27:53.916Z,7.46
2018-11-01T06:29:04.200Z,7.53
2018-11-01T06:29:53.894Z,7.43
2018-11-01T06:30:53.884Z,7.53
2018-11-01T06:31:53.870Z,7.50
2018-11-01T06:32:53.859Z,7.49
2018-11-01T06:33:53.846Z,7.48
2018-11-01T06:34:54.016Z,7.58
2018-11-01T06:35:53.827Z,7.57
2018-11-01T06:36:53.822Z,7.58
2018-11-01T06:37:53.808Z,7.63
2018-11-01T06:38:53.796Z,7.57
2018-11-01T06:39:53.786Z,7.63
2018-11-01T06:40:53.814Z,7.63
2018-11-01T06:41:53.763Z,7.68
2018-11-01T06:42:53.751Z,7.64
2018-11-01T06:43:53.743Z,7.67
2018-11-01T06:44:53.796Z,7.63
2018-11-01T06:45:53.723Z,7.71
2018-11-01T06:46:53.741Z,7.68
2018-11-01T06:47:53.700Z,7.68
2018-11-01T06:48:53.689Z,7.64
2018-11-01T06:49:53.678Z,7.72
2018-11-01T06:50:53.672Z,7.68
2018-11-01T06:51:53.655Z,7.64
2018-11-01T06:52:53.680Z,7.71
2018-11-01T06:53:53.631Z,7.68
2018-11-01T06:54:53.619Z,7.64
2018-11-01T06:55:53.612Z,7.68
2018-11-01T06:56:53.600Z,7.68
2018-11-01T06:57:53.601Z,7.69
2018-11-01T06:58:53.704Z,7.71
2018-11-01T07:00:04.067Z,7.64
2018-11-01T07:00:53.562Z,7.68
2018-11-01T07:01:53.541Z,7.68
2018-11-01T07:02:53.533Z,7.71
2018-11-01T07:03:53.526Z,7.69
2018-11-01T07:04:53.547Z,7.61
2018-11-01T07:05:53.523Z,7.64
2018-11-01T07:06:53.491Z,7.77
2018-11-01T07:07:53.490Z,7.69
2018-11-01T07:08:53.486Z,7.79
2018-11-01T07:09:53.457Z,7.64
2018-11-01T07:10:53.484Z,7.67
2018-11-01T07:11:53.444Z,7.67
2018-11-01T07:12:53.433Z,7.67
2018-11-01T07:13:53.414Z,7.68
2018-11-01T07:14:53.404Z,7.68
2018-11-01T07:15:53.396Z,7.71
2018-11-01T07:16:53.591Z,7.68
2018-11-01T07:17:53.381Z,7.67
2018-11-01T07:18:53.375Z,7.67
2018-11-01T07:19:53.356Z,7.61
2018-11-01T07:20:53.342Z,7.69
2018-11-01T07:21:53.331Z,7.55
2018-11-01T07:22:53.491Z,7.71
2018-11-01T07:23:53.318Z,7.67
2018-11-01T07:24:53.301Z,7.64
2018-11-01T07:25:53.332Z,7.68
2018-11-01T07:26:53.277Z,7.72
2018-11-01T07:27:53.270Z,7.75
2018-11-01T07:28:53.292Z,7.71
2018-11-01T07:29:53.251Z,7.75
2018-11-01T07:31:03.972Z,7.67
2018-11-01T07:31:53.224Z,7.67
2018-11-01T07:32:53.265Z,7.74
2018-11-01T07:33:53.201Z,7.68
2018-11-01T07:34:53.234Z,7.68
2018-11-01T07:35:53.176Z,7.63
2018-11-01T07:36:53.172Z,7.77
2018-11-01T07:37:53.160Z,7.79
2018-11-01T07:38:53.163Z,7.83
2018-11-01T07:39:53.210Z,7.77
2018-11-01T07:40:53.140Z,7.80
2018-11-01T07:41:53.113Z,7.85
2018-11-01T07:42:53.100Z,7.75
2018-11-01T07:43:53.097Z,7.74
2018-11-01T07:44:53.085Z,7.80
2018-11-01T07:45:53.080Z,7.68
2018-11-01T07:46:53.230Z,7.77
2018-11-01T07:47:53.044Z,7.80
2018-11-01T07:48:53.043Z,7.75
2018-11-01T07:49:53.024Z,7.79
2018-11-01T07:50:53.038Z,7.77
2018-11-01T07:51:53.007Z,7.80
2018-11-01T07:52:53.279Z,7.83
2018-11-01T07:53:53.016Z,7.79
2018-11-01T07:54:52.970Z,7.80
2018-11-01T07:55:52.974Z,7.80
2018-11-01T07:56:52.949Z,7.83
2018-11-01T07:57:52.940Z,7.82
2018-11-01T07:58:52.953Z,7.82
2018-11-01T07:59:52.931Z,7.89
2018-11-01T08:00:52.916Z,7.89
2018-11-01T08:02:02.886Z,7.92
2018-11-01T08:02:52.891Z,7.89
2018-11-01T08:03:52.874Z,7.89
2018-11-01T08:04:52.898Z,7.90
2018-11-01T08:05:53.026Z,7.89
2018-11-01T08:06:52.842Z,7.98
2018-11-01T08:07:52.842Z,7.90
2018-11-01T08:08:52.821Z,7.93
2018-11-01T08:09:52.810Z,7.98
2018-11-01T08:10:52.842Z,8.00
2018-11-01T08:11:52.851Z,8.02
2018-11-01T08:12:52.783Z,7.98
2018-11-01T08:13:52.764Z,8.05
2018-11-01T08:14:52.756Z,8.12
2018-11-01T08:15:52.752Z,8.04
2018-11-01T08:16:52.768Z,8.08
2018-11-01T08:17:52.732Z,8.07
2018-11-01T08:18:52.723Z,8.10
2018-11-01T08:19:52.967Z,8.05
2018-11-01T08:20:52.763Z,8.11
2018-11-01T08:21:52.681Z,8.02
2018-11-01T08:22:52.687Z,8.01
2018-11-01T08:23:52.665Z,8.02
2018-11-01T08:24:52.663Z,8.12
2018-11-01T08:25:52.646Z,8.08
2018-11-01T08:26:52.629Z,8.10
2018-11-01T08:27:52.679Z,8.11
2018-11-01T08:28:52.868Z,8.15
2018-11-01T08:29:52.616Z,8.05
2018-11-01T08:30:52.581Z,8.04
2018-11-01T08:31:52.574Z,8.02
2018-11-01T08:33:03.105Z,8.12
2018-11-01T08:33:52.547Z,8.02
2018-11-01T08:34:52.713Z,8.00
2018-11-01T08:35:52.532Z,8.01
2018-11-01T08:36:52.513Z,7.98
2018-11-01T08:37:52.504Z,8.05
2018-11-01T08:38:52.503Z,8.02
2018-11-01T08:39:52.482Z,7.98
2018-11-01T08:40:52.575Z,8.04
2018-11-01T08:41:52.458Z,8.01
2018-11-01T08:42:52.453Z,7.98
2018-11-01T08:43:52.441Z,8.04
2018-11-01T08:44:52.429Z,8.01
2018-11-01T08:45:52.423Z,8.00
2018-11-01T08:46:52.444Z,8.01
2018-11-01T08:47:52.407Z,8.00
2018-11-01T08:48:52.382Z,8.00
2018-11-01T08:49:52.384Z,8.10
2018-11-01T08:50:52.369Z,8.05
2018-11-01T08:51:52.376Z,8.12
2018-11-01T08:52:52.514Z,8.02
2018-11-01T08:53:52.332Z,8.08
2018-11-01T08:54:52.318Z,8.11
2018-11-01T08:55:52.337Z,8.10
2018-11-01T08:56:52.303Z,8.16
2018-11-01T08:57:52.313Z,8.15
2018-11-01T08:58:52.343Z,8.11
2018-11-01T08:59:52.267Z,8.25
2018-11-01T09:00:52.255Z,8.12
2018-11-01T09:01:52.248Z,8.19
2018-11-01T09:02:52.241Z,8.22
2018-11-01T09:04:02.803Z,8.23
2018-11-01T09:04:52.211Z,8.28
2018-11-01T09:05:52.204Z,8.33
2018-11-01T09:06:52.197Z,8.29
2018-11-01T09:07:52.182Z,8.28
2018-11-01T09:08:52.196Z,8.36
2018-11-01T09:09:52.205Z,8.37
2018-11-01T09:10:52.165Z,8.30
2018-11-01T09:11:52.145Z,8.29
2018-11-01T09:12:52.213Z,8.28
2018-11-01T09:13:52.114Z,8.33
2018-11-01T09:14:52.103Z,8.28
2018-11-01T09:15:52.148Z,8.25
2018-11-01T09:16:52.080Z,8.26
2018-11-01T09:17:52.089Z,8.28
2018-11-01T09:18:52.065Z,8.33
2018-11-01T09:19:52.086Z,8.26
2018-11-01T09:20:52.045Z,8.30
2018-11-01T09:21:52.064Z,8.26
2018-11-01T09:22:52.024Z,8.25
2018-11-01T09:23:52.033Z,8.22
2018-11-01T09:24:52.032Z,8.28
2018-11-01T09:25:51.982Z,8.29
2018-11-01T09:26:52.028Z,8.23
2018-11-01T09:27:51.999Z,8.30
2018-11-01T09:28:51.957Z,8.36
2018-11-01T09:29:51.961Z,8.26
2018-11-01T09:30:51.929Z,8.37
2018-11-01T09:31:51.952Z,8.29
2018-11-01T09:32:51.928Z,8.25
2018-11-01T09:33:51.940Z,8.30
2018-11-01T09:35:01.838Z,8.36
2018-11-01T09:35:52.024Z,8.38
2018-11-01T09:36:51.866Z,8.38
2018-11-01T09:37:51.859Z,8.43
2018-11-01T09:38:51.848Z,8.34
2018-11-01T09:39:51.878Z,8.43
2018-11-01T09:40:51.829Z,8.38
2018-11-01T09:41:51.831Z,8.41
2018-11-01T09:42:51.805Z,8.44
2018-11-01T09:43:51.788Z,8.38
2018-11-01T09:44:51.786Z,8.43
2018-11-01T09:45:52.169Z,8.45
2018-11-01T09:46:52.086Z,8.38
2018-11-01T09:47:51.991Z,8.40
2018-11-01T09:48:51.736Z,8.40
2018-11-01T09:49:51.731Z,8.44
2018-11-01T09:50:51.718Z,8.45
2018-11-01T09:51:51.740Z,8.55
2018-11-01T09:52:51.696Z,8.43
2018-11-01T09:53:51.685Z,8.47
2018-11-01T09:54:51.667Z,8.50
2018-11-01T09:55:51.814Z,8.44
2018-11-01T09:56:51.657Z,8.48
2018-11-01T09:57:51.680Z,8.59
2018-11-01T09:58:51.627Z,8.55
2018-11-01T09:59:51.658Z,8.56
2018-11-01T10:00:51.633Z,8.59
2018-11-01T10:01:51.592Z,8.59
2018-11-01T10:02:51.586Z,8.61
2018-11-01T10:03:51.622Z,8.58
2018-11-01T10:04:51.663Z,8.47
2018-11-01T10:06:01.660Z,8.50
2018-11-01T10:06:51.548Z,8.55
2018-11-01T10:07:51.531Z,8.56
2018-11-01T10:08:51.518Z,8.55
2018-11-01T10:09:51.562Z,8.53
2018-11-01T10:10:51.501Z,8.52
2018-11-01T10:11:51.500Z,8.43
2018-11-01T10:12:51.479Z,8.53
2018-11-01T10:13:51.532Z,8.48
2018-11-01T10:14:51.463Z,8.41
2018-11-01T10:15:51.744Z,8.44
2018-11-01T10:16:51.589Z,8.52
2018-11-01T10:17:51.932Z,8.47
2018-11-01T10:18:51.406Z,8.47
2018-11-01T10:19:51.397Z,8.47
2018-11-01T10:20:51.392Z,8.47
2018-11-01T10:21:51.547Z,8.50
2018-11-01T10:22:51.372Z,8.48
2018-11-01T10:23:51.382Z,8.44
2018-11-01T10:24:51.347Z,8.50
2018-11-01T10:25:51.366Z,8.50
2018-11-01T10:26:51.327Z,8.45
2018-11-01T10:27:51.469Z,8.41
2018-11-01T10:28:51.304Z,8.45
2018-11-01T10:29:51.305Z,8.50
2018-11-01T10:30:51.291Z,8.50
2018-11-01T10:31:51.275Z,8.52
2018-11-01T10:32:51.259Z,8.48
2018-11-01T10:33:51.308Z,8.58
2018-11-01T10:34:51.234Z,8.61
2018-11-01T10:35:51.222Z,8.62
2018-11-01T10:37:02.000Z,8.66
2018-11-01T10:37:51.204Z,8.63
2018-11-01T10:38:51.197Z,8.73
2018-11-01T10:39:51.225Z,8.81
2018-11-01T10:40:51.255Z,8.95
2018-11-01T10:41:51.158Z,9.11
2018-11-01T10:42:51.147Z,9.15
2018-11-01T10:43:51.146Z,9.17
2018-11-01T10:44:51.123Z,9.14
2018-11-01T10:45:51.156Z,9.13
2018-11-01T10:46:51.108Z,9.38
2018-11-01T10:47:51.177Z,9.29
2018-11-01T10:48:51.082Z,9.21
2018-11-01T10:49:51.083Z,9.29
2018-11-01T10:50:51.064Z,9.26
2018-11-01T10:51:51.095Z,9.29
2018-11-01T10:52:51.045Z,9.56
2018-11-01T10:53:51.178Z,9.50
2018-11-01T10:54:51.014Z,9.35
2018-11-01T10:55:51.014Z,9.33
2018-11-01T10:56:51.000Z,9.29
2018-11-01T10:57:51.028Z,9.14
2018-11-01T10:58:50.977Z,9.15
2018-11-01T10:59:51.082Z,9.17
2018-11-01T11:00:51.067Z,9.26
2018-11-01T11:01:50.951Z,9.31
2018-11-01T11:02:50.942Z,9.23
2018-11-01T11:03:50.962Z,9.20
2018-11-01T11:04:50.916Z,9.13
2018-11-01T11:05:50.907Z,9.13
2018-11-01T11:06:50.896Z,9.14
2018-11-01T11:08:01.966Z,9.13
2018-11-01T11:08:50.869Z,9.14
2018-11-01T11:09:51.232Z,8.96
2018-11-01T11:10:50.851Z,8.98
2018-11-01T11:11:50.844Z,8.92
2018-11-01T11:12:50.822Z,8.86
2018-11-01T11:13:50.821Z,8.92
2018-11-01T11:14:50.813Z,8.92
2018-11-01T11:15:50.853Z,8.83
2018-11-01T11:16:50.795Z,8.86
2018-11-01T11:17:50.772Z,8.92
2018-11-01T11:18:50.761Z,8.83
2018-11-01T11:19:50.845Z,8.94
2018-11-01T11:20:51.108Z,8.98
2018-11-01T11:21:50.803Z,8.92
2018-11-01T11:22:50.743Z,8.95
2018-11-01T11:23:50.702Z,9.10
2018-11-01T11:24:50.700Z,9.08
2018-11-01T11:25:50.691Z,8.94
2018-11-01T11:26:50.671Z,8.96
2018-11-01T11:27:50.697Z,8.91
2018-11-01T11:28:50.658Z,8.95
2018-11-01T11:29:50.658Z,8.98
2018-11-01T11:30:50.628Z,8.95
2018-11-01T11:31:50.634Z,9.13
2018-11-01T11:32:50.602Z,9.20
2018-11-01T11:33:50.639Z,9.10
2018-11-01T11:34:50.584Z,9.14
2018-11-01T11:35:50.682Z,9.11
2018-11-01T11:36:50.563Z,9.31
2018-11-01T11:37:50.556Z,9.89
2018-11-01T11:39:01.885Z,10.22
2018-11-01T11:39:50.679Z,10.07
2018-11-01T11:40:50.519Z,10.04
2018-11-01T11:41:50.510Z,9.68
2018-11-01T11:42:50.498Z,9.71
2018-11-01T11:43:50.492Z,9.87
2018-11-01T11:44:50.520Z,10.51
2018-11-01T11:45:50.478Z,11.00
2018-11-01T11:46:50.469Z,10.41
2018-11-01T11:47:50.447Z,9.87
2018-11-01T11:48:50.433Z,9.81
2018-11-01T11:49:50.439Z,9.75
2018-11-01T11:50:50.448Z,9.83
2018-11-01T11:51:50.408Z,9.84
2018-11-01T11:52:50.396Z,9.58
2018-11-01T11:53:50.386Z,9.48
2018-11-01T11:54:50.385Z,9.65
2018-11-01T11:55:50.363Z,9.61
2018-11-01T11:56:50.537Z,9.65
2018-11-01T11:57:50.337Z,9.69
2018-11-01T11:58:50.335Z,9.56
2018-11-01T11:59:50.324Z,9.38
2018-11-01T12:00:50.309Z,9.36
2018-11-01T12:01:50.323Z,9.14
2018-11-01T12:02:50.322Z,9.11
2018-11-01T12:03:50.280Z,8.95
2018-11-01T12:04:50.265Z,8.95
2018-11-01T12:05:50.279Z,9.05
2018-11-01T12:06:50.251Z,8.96
2018-11-01T12:07:50.238Z,8.98
2018-11-01T12:08:50.262Z,8.84
2018-11-01T12:10:02.262Z,8.84
2018-11-01T12:10:50.200Z,8.77
2018-11-01T12:11:50.187Z,8.79
2018-11-01T12:12:50.177Z,8.68
2018-11-01T12:13:50.166Z,8.66
2018-11-01T12:14:50.180Z,8.61
2018-11-01T12:15:50.147Z,8.65
2018-11-01T12:16:50.136Z,8.62
2018-11-01T12:17:50.121Z,8.59
2018-11-01T12:18:50.113Z,8.58
2018-11-01T12:19:50.101Z,8.52
2018-11-01T12:20:50.267Z,8.58
2018-11-01T12:21:50.078Z,8.52
2018-11-01T12:22:50.067Z,8.56
2018-11-01T12:23:50.065Z,8.58
2018-11-01T12:24:50.060Z,8.59
2018-11-01T12:25:50.056Z,8.59
2018-11-01T12:26:50.075Z,8.56
2018-11-01T12:27:50.850Z,8.62
2018-11-01T12:28:50.035Z,8.53
2018-11-01T12:29:49.992Z,8.62
2018-11-01T12:30:49.983Z,8.59
2018-11-01T12:31:49.974Z,8.55
2018-11-01T12:32:49.999Z,8.56
2018-11-01T12:33:49.955Z,8.48
2018-11-01T12:34:49.956Z,8.53
2018-11-01T12:35:49.983Z,8.52
2018-11-01T12:36:49.920Z,8.53
2018-11-01T12:37:49.929Z,8.53
2018-11-01T12:38:49.940Z,8.55
2018-11-01T12:39:49.882Z,8.52
2018-11-01T12:41:00.742Z,8.43
2018-11-01T12:41:49.857Z,8.48
2018-11-01T12:42:49.848Z,8.37
2018-11-01T12:43:49.843Z,8.41
2018-11-01T12:44:49.930Z,8.47
2018-11-01T12:45:49.815Z,8.41
2018-11-01T12:46:49.813Z,8.43
2018-11-01T12:47:49.799Z,8.40
2018-11-01T12:48:49.788Z,8.41
2018-11-01T12:49:49.885Z,8.56
2018-11-01T12:50:49.801Z,8.55
2018-11-01T12:51:49.754Z,8.53
2018-11-01T12:52:49.742Z,8.56
2018-11-01T12:53:49.729Z,8.50
2018-11-01T12:54:49.726Z,8.43
2018-11-01T12:55:49.720Z,8.41
2018-11-01T12:56:49.871Z,8.41
2018-11-01T12:57:49.688Z,8.38
2018-11-01T12:58:49.681Z,8.29
2018-11-01T12:59:49.661Z,8.38
2018-11-01T13:00:49.651Z,8.25
2018-11-01T13:01:49.647Z,8.28
2018-11-01T13:02:49.818Z,8.33
2018-11-01T13:03:49.620Z,8.36
2018-11-01T13:04:49.606Z,8.40
2018-11-01T13:05:49.604Z,8.36
2018-11-01T13:06:50.376Z,8.41
2018-11-01T13:07:49.578Z,8.47
2018-11-01T13:08:49.601Z,8.48
2018-11-01T13:09:49.559Z,8.43
2018-11-01T13:10:49.636Z,8.41
2018-11-01T13:11:59.860Z,8.43
2018-11-01T13:12:49.518Z,8.38
2018-11-01T13:13:49.518Z,8.41
2018-11-01T13:14:49.542Z,8.26
2018-11-01T13:15:49.485Z,8.23
2018-11-01T13:16:49.478Z,8.10
2018-11-01T13:17:49.500Z,8.11
2018-11-01T13:18:49.461Z,8.02